createdAt,value
2018-12-08T00:00:59.762Z,5.93
2018-12-08T00:03:33.045Z,6.02
2018-12-08T00:06:06.360Z,6.05
2018-12-08T00:08:40.037Z,6.01
2018-12-08T00:11:13.063Z,5.98
2018-12-08T00:13:47.770Z,5.96
2018-12-08T00:16:22.221Z,5.96
2018-12-08T00:18:56.817Z,6.04
2018-12-08T00:21:30.671Z,6.10
2018-12-08T00:24:06.132Z,6.17
2018-12-08T00:26:39.711Z,6.23
2018-12-08T00:29:12.652Z,6.27
2018-12-08T00:31:48.337Z,6.35
2018-12-08T00:34:21.314Z,6.42
2018-12-08T00:36:54.341Z,6.49
2018-12-08T00:39:27.915Z,6.51
2018-12-08T00:42:00.972Z,6.63
2018-12-08T00:44:34.068Z,6.75
2018-12-08T00:47:07.346Z,6.78
2018-12-08T00:49:41.609Z,6.86
2018-12-08T00:52:16.383Z,6.91
2018-12-08T00:54:51.471Z,6.93
2018-12-08T00:57:25.363Z,6.98
2018-12-08T01:00:03.194Z,7.00
2018-12-08T01:02:36.118Z,6.97
2018-12-08T01:05:09.023Z,6.97
2018-12-08T01:07:42.098Z,6.97
2018-12-08T01:10:15.031Z,6.96
2018-12-08T01:12:48.971Z,7.00
2018-12-08T01:15:23.576Z,7.03
2018-12-08T01:17:56.474Z,7.06
2018-12-08T01:20:30.021Z,7.05
2018-12-08T01:23:03.477Z,7.11
2018-12-08T01:25:36.400Z,7.16
2018-12-08T01:28:10.245Z,7.17
2018-12-08T01:30:43.606Z,7.10
2018-12-08T01:33:19.619Z,7.00
2018-12-08T01:35:52.655Z,6.97
2018-12-08T01:38:27.177Z,6.93
2018-12-08T01:41:00.100Z,6.88
2018-12-08T01:43:33.088Z,6.87
2018-12-08T01:46:09.503Z,6.86
2018-12-08T01:48:43.338Z,6.84
2018-12-08T01:51:16.580Z,6.81
2018-12-08T01:53:50.428Z,6.79
2018-12-08T01:56:24.179Z,6.84
2018-12-08T01:58:57.115Z,6.83
2018-12-08T02:01:31.504Z,6.83
2018-12-08T02:04:04.513Z,6.82
2018-12-08T02:06:39.455Z,6.83
2018-12-08T02:09:14.529Z,6.85
2018-12-08T02:11:47.727Z,6.87
2018-12-08T02:14:21.011Z,6.90
2018-12-08T02:16:54.858Z,6.93
2018-12-08T02:19:28.755Z,6.94
2018-12-08T02:22:01.705Z,6.90
2018-12-08T02:24:35.116Z,6.87
2018-12-08T02:27:08.120Z,6.83
2018-12-08T02:29:41.841Z,6.78
2018-12-08T02:32:15.397Z,6.79
2018-12-08T02:34:48.468Z,6.77
2018-12-08T02:37:21.468Z,6.77
2018-12-08T02:39:56.011Z,6.72
2018-12-08T02:42:29.077Z,6.70
2018-12-08T02:45:04.292Z,6.69
2018-12-08T02:47:37.281Z,6.72
2018-12-08T02:50:10.316Z,6.77
2018-12-08T02:52:43.389Z,6.82
2018-12-08T02:55:16.325Z,6.84
2018-12-08T02:57:49.830Z,6.88
2018-12-08T03:00:23.407Z,6.92
2018-12-08T03:02:56.600Z,6.94
2018-12-08T03:05:30.047Z,6.95
2018-12-08T03:08:03.148Z,7.00
2018-12-08T03:10:36.130Z,6.99
2018-12-08T03:13:09.568Z,7.00
2018-12-08T03:15:42.560Z,7.02
2018-12-08T03:18:15.540Z,7.09
2018-12-08T03:20:49.449Z,7.15
2018-12-08T03:23:22.498Z,7.20
2018-12-08T03:25:55.553Z,7.19
2018-12-08T03:28:29.068Z,7.22
2018-12-08T03:31:03.036Z,7.19
2018-12-08T03:33:36.109Z,7.22
2018-12-08T03:36:09.540Z,7.25
2018-12-08T03:38:42.522Z,7.25
2018-12-08T03:41:15.456Z,7.28
2018-12-08T03:43:50.858Z,7.29
2018-12-08T03:46:24.633Z,7.27
2018-12-08T03:48:57.665Z,7.24
2018-12-08T03:51:32.397Z,7.23
2018-12-08T03:54:05.547Z,7.22
2018-12-08T03:56:38.599Z,7.22
2018-12-08T03:59:12.677Z,7.23
2018-12-08T04:01:45.544Z,7.25
2018-12-08T04:04:18.509Z,7.27
2018-12-08T04:06:51.890Z,7.30
2018-12-08T04:09:25.143Z,7.34
2018-12-08T04:11:59.163Z,7.35
2018-12-08T04:14:33.824Z,7.36
2018-12-08T04:17:06.670Z,7.36
2018-12-08T04:19:39.707Z,7.37
2018-12-08T04:22:13.059Z,7.38
2018-12-08T04:24:46.118Z,7.40
2018-12-08T04:27:19.039Z,7.42
2018-12-08T04:29:52.467Z,7.43
2018-12-08T04:32:25.418Z,7.46
2018-12-08T04:34:58.379Z,7.45
2018-12-08T04:37:31.700Z,7.43
2018-12-08T04:40:05.591Z,7.42
2018-12-08T04:42:39.142Z,7.39
2018-12-08T04:45:15.124Z,7.40
2018-12-08T04:47:48.036Z,7.37
2018-12-08T04:50:20.935Z,7.35
2018-12-08T04:52:54.240Z,7.34
2018-12-08T04:55:27.273Z,7.33
2018-12-08T04:58:00.191Z,7.34
2018-12-08T05:00:34.643Z,7.32
2018-12-08T05:03:07.673Z,7.26
2018-12-08T05:05:40.669Z,7.20
2018-12-08T05:08:16.050Z,7.24
2018-12-08T05:10:49.353Z,7.25
2018-12-08T05:13:22.496Z,7.28
2018-12-08T05:15:56.046Z,7.31
2018-12-08T05:18:29.064Z,7.35
2018-12-08T05:21:02.113Z,7.39
2018-12-08T05:23:39.888Z,7.44
2018-12-08T05:26:12.916Z,7.46
2018-12-08T05:28:46.059Z,7.50
2018-12-08T05:31:19.507Z,7.51
2018-12-08T05:33:52.798Z,7.60
2018-12-08T05:36:25.945Z,7.65
2018-12-08T05:38:59.284Z,7.69
2018-12-08T05:41:32.296Z,7.71
2018-12-08T05:44:06.346Z,7.71
2018-12-08T05:46:42.554Z,7.70
2018-12-08T05:49:15.832Z,7.69
2018-12-08T05:51:49.684Z,7.69
2018-12-08T05:54:23.585Z,7.68
2018-12-08T05:56:56.531Z,7.67
2018-12-08T05:59:29.620Z,7.66
2018-12-08T06:02:04.185Z,7.66
2018-12-08T06:04:37.444Z,7.65
2018-12-08T06:07:10.524Z,7.96
2018-12-08T06:09:44.221Z,8.31
2018-12-08T06:12:17.990Z,8.15
2018-12-08T06:14:50.804Z,7.99
2018-12-08T06:17:25.540Z,7.85
2018-12-08T06:19:58.839Z,7.61
2018-12-08T06:22:31.684Z,7.47
2018-12-08T06:25:07.383Z,7.42
2018-12-08T06:28:01.921Z,7.41
2018-12-08T06:30:35.459Z,7.45
2018-12-08T06:33:09.482Z,7.54
2018-12-08T06:35:44.076Z,7.56
2018-12-08T06:38:20.036Z,7.59
2018-12-08T06:40:55.192Z,7.62
2018-12-08T06:43:29.296Z,7.61
2018-12-08T06:46:03.116Z,7.60
2018-12-08T06:48:36.010Z,7.61
2018-12-08T06:51:09.458Z,7.62
2018-12-08T06:53:42.422Z,7.60
2018-12-08T06:56:15.423Z,7.56
2018-12-08T06:58:49.002Z,7.57
2018-12-08T07:01:21.963Z,7.57
2018-12-08T07:03:54.964Z,7.56
2018-12-08T07:06:28.407Z,7.55
2018-12-08T07:09:01.360Z,7.57
2018-12-08T07:11:34.481Z,7.53
2018-12-08T07:14:09.960Z,7.50
2018-12-08T07:16:44.240Z,7.49
2018-12-08T07:19:17.262Z,7.45
2018-12-08T07:21:51.617Z,7.43
2018-12-08T07:24:24.442Z,7.42
2018-12-08T07:26:57.313Z,7.44
2018-12-08T07:29:32.540Z,7.49
2018-12-08T07:32:05.671Z,7.44
2018-12-08T07:34:38.975Z,7.39
2018-12-08T07:37:12.527Z,7.33
2018-12-08T07:39:46.394Z,7.27
2018-12-08T07:42:19.272Z,7.25
2018-12-08T07:44:54.769Z,7.23
2018-12-08T07:47:28.996Z,7.26
2018-12-08T07:50:02.776Z,7.30
2018-12-08T07:52:38.305Z,7.31
2018-12-08T07:55:11.485Z,7.32
2018-12-08T07:57:44.364Z,7.35
2018-12-08T08:00:19.873Z,7.36
2018-12-08T08:02:52.837Z,7.34
2018-12-08T08:05:25.857Z,7.30
2018-12-08T08:08:00.009Z,7.26
2018-12-08T08:10:35.835Z,7.22
2018-12-08T08:13:09.105Z,7.23
2018-12-08T08:15:43.464Z,7.25
2018-12-08T08:18:16.397Z,7.27
2018-12-08T08:20:51.126Z,7.26
2018-12-08T08:23:30.005Z,7.27
2018-12-08T08:26:04.951Z,7.30
2018-12-08T08:28:41.453Z,7.32
2018-12-08T08:31:14.924Z,7.37
2018-12-08T08:33:49.891Z,7.41
2018-12-08T08:36:24.607Z,7.45
2018-12-08T08:39:00.298Z,7.48
2018-12-08T08:41:35.133Z,7.49
2018-12-08T08:44:09.750Z,7.48
2018-12-08T08:46:46.527Z,7.47
2018-12-08T08:49:21.354Z,7.47
2018-12-08T08:51:54.732Z,7.45
2018-12-08T08:54:31.609Z,7.47
2018-12-08T08:57:06.366Z,7.49
2018-12-08T08:59:40.331Z,7.52
2018-12-08T09:02:13.902Z,7.54
2018-12-08T09:04:49.144Z,7.55
2018-12-08T09:07:25.194Z,7.59
2018-12-08T09:09:58.876Z,7.58
2018-12-08T09:12:31.959Z,7.61
2018-12-08T09:15:15.662Z,7.62
2018-12-08T09:17:49.654Z,7.65
2018-12-08T09:20:25.063Z,7.67
2018-12-08T09:23:00.165Z,7.71
2018-12-08T09:25:34.530Z,7.73
2018-12-08T09:28:08.099Z,7.75
2018-12-08T09:30:41.076Z,7.79
2018-12-08T09:33:15.352Z,7.81
2018-12-08T09:35:49.915Z,7.83
2018-12-08T09:38:25.824Z,7.86
2018-12-08T09:40:59.476Z,7.88
2018-12-08T09:43:41.645Z,7.93
2018-12-08T09:46:16.604Z,7.93
2018-12-08T09:48:50.430Z,7.95
2018-12-08T09:51:24.150Z,7.89
2018-12-08T09:53:58.044Z,7.89
2018-12-08T09:56:31.023Z,7.87
2018-12-08T09:59:04.680Z,7.84
2018-12-08T10:01:39.672Z,7.82
2018-12-08T10:04:12.700Z,7.88
2018-12-08T10:06:48.857Z,7.97
2018-12-08T10:09:23.562Z,8.04
2018-12-08T10:11:56.735Z,8.04
2018-12-08T10:14:33.469Z,8.08
2018-12-08T10:17:06.963Z,8.12
2018-12-08T10:19:40.591Z,8.11
2018-12-08T10:22:16.471Z,8.08
2018-12-08T10:24:50.071Z,8.03
2018-12-08T10:27:24.519Z,7.98
2018-12-08T10:30:00.848Z,7.95
2018-12-08T10:32:36.555Z,7.90
2018-12-08T10:35:13.394Z,7.93
2018-12-08T10:37:47.236Z,7.97
2018-12-08T10:40:22.650Z,7.99
2018-12-08T10:42:59.800Z,8.03
2018-12-08T10:45:34.572Z,8.07
2018-12-08T10:48:10.908Z,8.08
2018-12-08T10:50:45.594Z,8.08
2018-12-08T10:53:22.176Z,8.07
2018-12-08T10:55:56.417Z,8.06
2018-12-08T10:58:31.362Z,8.10
2018-12-08T11:01:07.215Z,8.12
2018-12-08T11:03:53.342Z,8.11
2018-12-08T11:06:29.538Z,8.15
2018-12-08T11:09:04.775Z,8.19
2018-12-08T11:11:43.039Z,8.22
2018-12-08T11:14:17.075Z,8.34
2018-12-08T11:16:52.074Z,8.37
2018-12-08T11:19:27.796Z,8.45
2018-12-08T11:22:01.508Z,8.52
2018-12-08T11:24:38.558Z,8.55
2018-12-08T11:27:12.694Z,8.56
2018-12-08T11:29:47.868Z,8.55
2018-12-08T11:32:20.863Z,8.58
2018-12-08T11:34:57.724Z,8.58
2018-12-08T11:37:31.551Z,8.52
2018-12-08T11:40:08.073Z,8.53
2018-12-08T11:42:44.395Z,8.60
2018-12-08T11:45:18.570Z,8.64
2018-12-08T11:47:52.797Z,8.68
2018-12-08T11:50:35.214Z,8.69
2018-12-08T11:53:08.684Z,8.75
2018-12-08T11:55:44.820Z,8.78
2018-12-08T11:58:20.060Z,8.75
2018-12-08T12:00:53.283Z,8.67
2018-12-08T12:03:28.033Z,8.62
2018-12-08T12:06:03.584Z,8.58
2018-12-08T12:08:36.618Z,8.59
2018-12-08T12:11:10.727Z,8.72
2018-12-08T12:13:45.263Z,8.74
2018-12-08T12:16:23.015Z,8.75
2018-12-08T12:18:56.142Z,8.76
2018-12-08T12:21:32.481Z,8.82
2018-12-08T12:24:06.566Z,8.90
2018-12-08T12:26:41.477Z,8.92
2018-12-08T12:29:17.462Z,8.98
2018-12-08T12:31:54.063Z,8.98
2018-12-08T12:34:28.112Z,8.97
2018-12-08T12:37:01.769Z,8.98
2018-12-08T12:39:37.775Z,9.00
2018-12-08T12:42:10.740Z,9.00
2018-12-08T12:44:47.067Z,9.00
2018-12-08T12:47:20.599Z,9.01
2018-12-08T12:49:53.709Z,8.98
2018-12-08T12:52:27.171Z,9.01
2018-12-08T12:55:00.324Z,9.04
2018-12-08T12:57:33.332Z,9.04
2018-12-08T13:00:15.510Z,9.02
2018-12-08T13:02:48.556Z,9.05
2018-12-08T13:05:23.671Z,9.11
2018-12-08T13:07:57.572Z,9.13
2018-12-08T13:10:32.753Z,9.16
2018-12-08T13:13:06.212Z,9.18
2018-12-08T13:15:39.483Z,9.19
2018-12-08T13:18:12.592Z,9.21
2018-12-08T13:20:46.690Z,9.27
2018-12-08T13:23:20.362Z,9.29
2018-12-08T13:25:53.958Z,9.33
2018-12-08T13:28:27.944Z,9.35
2018-12-08T13:31:02.927Z,9.32
2018-12-08T13:33:36.929Z,9.15
2018-12-08T13:36:31.983Z,8.99
2018-12-08T13:39:07.078Z,8.91
2018-12-08T13:41:41.364Z,8.95
2018-12-08T13:44:36.660Z,8.96
2018-12-08T13:47:09.674Z,8.96
2018-12-08T13:49:44.446Z,8.97
2018-12-08T13:52:19.436Z,8.95
2018-12-08T13:54:53.187Z,9.00
2018-12-08T13:57:26.539Z,9.00
2018-12-08T13:59:59.671Z,9.06
2018-12-08T14:02:34.861Z,9.07
2018-12-08T14:05:09.387Z,9.05
2018-12-08T14:07:43.808Z,9.04
2018-12-08T14:10:16.973Z,9.10
2018-12-08T14:12:51.428Z,9.18
2018-12-08T14:15:25.772Z,9.19
2018-12-08T14:17:58.913Z,9.21
2018-12-08T14:20:34.532Z,9.23
2018-12-08T14:23:08.858Z,9.29
2018-12-08T14:25:42.919Z,9.33
2018-12-08T14:28:21.402Z,9.37
2018-12-08T14:30:55.297Z,9.40
2018-12-08T14:33:29.209Z,9.38
2018-12-08T14:36:03.737Z,9.37
2018-12-08T14:38:38.124Z,9.37
2018-12-08T14:41:11.266Z,9.37
2018-12-08T14:43:44.313Z,9.36
2018-12-08T14:46:17.854Z,9.37
2018-12-08T14:48:51.212Z,9.38
2018-12-08T14:51:25.796Z,9.38
2018-12-08T14:54:00.985Z,9.36
2018-12-08T14:56:35.637Z,9.32
2018-12-08T14:59:10.012Z,9.31
2018-12-08T15:01:46.818Z,9.36
2018-12-08T15:04:20.847Z,9.42
2018-12-08T15:06:56.864Z,9.43
2018-12-08T15:09:32.065Z,9.42
2018-12-08T15:12:07.712Z,9.45
2018-12-08T15:14:41.955Z,9.46
2018-12-08T15:17:15.942Z,9.51
2018-12-08T15:19:50.388Z,9.52
2018-12-08T15:22:24.710Z,9.55
2018-12-08T15:24:58.352Z,9.57
2018-12-08T15:27:35.528Z,9.58
2018-12-08T15:30:19.498Z,9.61
2018-12-08T15:32:53.381Z,9.61
2018-12-08T15:35:28.338Z,9.69
2018-12-08T15:38:01.338Z,9.72
2018-12-08T15:40:36.121Z,9.73
2018-12-08T15:43:09.756Z,9.80
2018-12-08T15:45:42.952Z,9.88
2018-12-08T15:48:16.136Z,9.91
2018-12-08T15:50:49.947Z,9.86
2018-12-08T15:53:26.865Z,9.84
2018-12-08T15:56:00.813Z,9.81
2018-12-08T15:58:35.463Z,9.80
2018-12-08T16:01:10.719Z,9.77
2018-12-08T16:03:45.425Z,9.74
2018-12-08T16:06:19.089Z,9.72
2018-12-08T16:08:53.023Z,9.72
2018-12-08T16:11:26.972Z,9.70
2018-12-08T16:14:03.384Z,9.68
2018-12-08T16:16:41.122Z,9.72
2018-12-08T16:19:15.136Z,9.73
2018-12-08T16:21:52.724Z,9.76
2018-12-08T16:24:26.595Z,9.77
2018-12-08T16:27:03.922Z,9.74
2018-12-08T16:29:39.579Z,9.74
2018-12-08T16:32:15.209Z,9.78
2018-12-08T16:34:55.327Z,9.80
2018-12-08T16:37:30.901Z,9.84
2018-12-08T16:40:07.142Z,9.85
2018-12-08T16:42:46.787Z,9.85
2018-12-08T16:45:20.769Z,9.84
2018-12-08T16:47:56.347Z,9.86
2018-12-08T16:50:31.992Z,9.84
2018-12-08T16:53:08.273Z,9.81
2018-12-08T16:55:41.979Z,9.78
2018-12-08T16:58:15.433Z,9.70
2018-12-08T17:00:50.869Z,9.60
2018-12-08T17:03:26.372Z,9.61
2018-12-08T17:06:00.439Z,9.59
2018-12-08T17:08:33.498Z,9.53
2018-12-08T17:11:08.926Z,9.51
2018-12-08T17:13:43.573Z,9.45
2018-12-08T17:16:17.210Z,9.45
2018-12-08T17:18:51.921Z,9.47
2018-12-08T17:21:29.651Z,9.49
2018-12-08T17:24:03.553Z,9.58
2018-12-08T17:26:44.070Z,9.55
2018-12-08T17:29:19.229Z,9.42
2018-12-08T17:31:53.216Z,9.27
2018-12-08T17:34:27.822Z,9.17
2018-12-08T17:37:03.443Z,9.13
2018-12-08T17:39:40.844Z,9.08
2018-12-08T17:42:16.806Z,9.05
2018-12-08T17:44:50.787Z,9.03
2018-12-08T17:47:27.015Z,9.01
2018-12-08T17:50:01.423Z,9.01
2018-12-08T17:52:36.172Z,9.02
2018-12-08T17:55:11.510Z,9.02
2018-12-08T17:58:06.386Z,9.10
2018-12-08T18:00:42.007Z,9.10
2018-12-08T18:03:16.597Z,9.08
2018-12-08T18:05:52.745Z,9.06
2018-12-08T18:08:29.157Z,9.06
2018-12-08T18:11:03.718Z,9.05
2018-12-08T18:13:37.628Z,9.03
2018-12-08T18:16:12.335Z,9.04
2018-12-08T18:18:46.807Z,9.06
2018-12-08T18:21:22.665Z,9.07
2018-12-08T18:23:59.038Z,9.08
2018-12-08T18:26:33.364Z,9.11
2018-12-08T18:29:17.597Z,9.12
2018-12-08T18:31:51.660Z,9.16
2018-12-08T18:34:25.642Z,9.21
2018-12-08T18:36:58.934Z,9.22
2018-12-08T18:39:32.007Z,9.23
2018-12-08T18:42:05.833Z,9.23
2018-12-08T18:44:40.134Z,9.23
2018-12-08T18:47:15.203Z,9.21
2018-12-08T18:49:50.859Z,9.16
2018-12-08T18:52:25.607Z,9.09
2018-12-08T18:55:03.784Z,9.06
2018-12-08T18:57:37.565Z,9.05
2018-12-08T19:00:15.008Z,9.07
2018-12-08T19:02:48.728Z,9.11
2018-12-08T19:05:26.546Z,9.17
2018-12-08T19:08:00.779Z,9.20
2018-12-08T19:10:37.512Z,9.20
2018-12-08T19:13:10.548Z,9.18
2018-12-08T19:15:46.070Z,9.16
2018-12-08T19:18:20.091Z,9.14
2018-12-08T19:20:55.705Z,9.11
2018-12-08T19:23:34.068Z,9.08
2018-12-08T19:26:12.374Z,9.07
2018-12-08T19:28:46.157Z,9.03
2018-12-08T19:31:19.952Z,9.03
2018-12-08T19:33:56.129Z,9.03
2018-12-08T19:36:31.573Z,9.05
2018-12-08T19:39:07.310Z,9.08
2018-12-08T19:41:40.958Z,9.13
2018-12-08T19:44:14.912Z,9.13
2018-12-08T19:46:48.972Z,9.15
2018-12-08T19:49:23.030Z,9.14
2018-12-08T19:51:57.144Z,9.16
2018-12-08T19:54:30.306Z,9.18
2018-12-08T19:57:07.286Z,9.18
2018-12-08T19:59:43.332Z,9.20
2018-12-08T20:02:19.163Z,9.24
2018-12-08T20:04:54.456Z,9.29
2018-12-08T20:07:30.023Z,9.34
2018-12-08T20:10:05.627Z,9.36
2018-12-08T20:12:42.346Z,9.36
2018-12-08T20:15:16.843Z,9.38
2018-12-08T20:17:50.531Z,9.39
2018-12-08T20:20:26.911Z,9.41
2018-12-08T20:23:00.496Z,9.38
2018-12-08T20:25:34.874Z,9.38
2018-12-08T20:28:10.476Z,9.40
2018-12-08T20:30:44.412Z,9.42
2018-12-08T20:33:22.267Z,9.45
2018-12-08T20:35:56.810Z,9.48
2018-12-08T20:38:30.615Z,9.50
2018-12-08T20:41:07.434Z,9.51
2018-12-08T20:43:43.125Z,9.50
2018-12-08T20:46:17.348Z,9.50
2018-12-08T20:48:55.768Z,9.53
2018-12-08T20:51:29.835Z,9.57
2018-12-08T20:54:04.198Z,9.60
2018-12-08T20:56:38.269Z,9.64
2018-12-08T20:59:13.367Z,9.70
2018-12-08T21:01:47.484Z,9.73
2018-12-08T21:04:28.125Z,9.73
2018-12-08T21:07:02.762Z,9.76
2018-12-08T21:09:52.500Z,9.79
2018-12-08T21:12:27.928Z,9.84
2018-12-08T21:15:01.084Z,9.88
2018-12-08T21:17:39.716Z,9.91
2018-12-08T21:20:14.024Z,9.99
2018-12-08T21:22:48.409Z,10.05
2018-12-08T21:25:22.434Z,10.09
2018-12-08T21:27:57.887Z,10.17
2018-12-08T21:30:34.011Z,10.24
2018-12-08T21:33:07.960Z,10.21
2018-12-08T21:35:44.643Z,10.17
2018-12-08T21:38:18.133Z,10.18
2018-12-08T21:40:51.136Z,10.22
2018-12-08T21:43:24.932Z,10.30
2018-12-08T21:45:59.479Z,10.35
2018-12-08T21:48:32.579Z,10.38
2018-12-08T21:51:05.765Z,10.40
2018-12-08T21:53:41.542Z,10.44
2018-12-08T21:56:20.736Z,10.44
2018-12-08T21:58:55.315Z,10.46
2018-12-08T22:01:32.189Z,10.49
2018-12-08T22:04:07.602Z,10.48
2018-12-08T22:06:43.209Z,10.46
2018-12-08T22:09:25.366Z,10.44
2018-12-08T22:11:59.732Z,10.34
2018-12-08T22:14:57.590Z,10.25
2018-12-08T22:17:33.853Z,10.20
2018-12-08T22:20:07.197Z,10.23
2018-12-08T22:22:42.077Z,10.29
2018-12-08T22:25:16.788Z,10.27
2018-12-08T22:27:51.956Z,10.27
2018-12-08T22:30:30.846Z,10.26
2018-12-08T22:33:04.086Z,10.12
2018-12-08T22:35:40.181Z,10.11
2018-12-08T22:38:14.307Z,10.11
2018-12-08T22:40:47.451Z,10.14
2018-12-08T22:43:22.136Z,10.14
2018-12-08T22:45:55.920Z,10.19
2018-12-08T22:48:29.016Z,10.32
2018-12-08T22:51:04.666Z,10.33
2018-12-08T22:53:39.260Z,10.28
2018-12-08T22:56:12.310Z,10.29
2018-12-08T22:58:46.877Z,10.30
2018-12-08T23:01:21.851Z,10.29
2018-12-08T23:03:55.681Z,10.32
2018-12-08T23:06:32.844Z,10.34
2018-12-08T23:09:07.582Z,10.38
2018-12-08T23:11:40.712Z,10.42
2018-12-08T23:14:16.218Z,10.38
2018-12-08T23:16:50.802Z,10.38
2018-12-08T23:19:38.590Z,10.40
2018-12-08T23:22:12.249Z,10.40
2018-12-08T23:24:45.843Z,10.40
2018-12-08T23:27:21.882Z,10.39
2018-12-08T23:30:00.277Z,10.38
2018-12-08T23:32:36.937Z,10.40
2018-12-08T23:35:11.650Z,10.40
2018-12-08T23:37:45.932Z,10.39
2018-12-08T23:40:19.832Z,10.35
2018-12-08T23:42:52.845Z,10.37
2018-12-08T23:45:27.660Z,10.41
2018-12-08T23:48:02.605Z,10.40
2018-12-08T23:50:35.652Z,10.41
2018-12-08T23:53:09.225Z,10.39
2018-12-08T23:55:42.386Z,10.38
2018-12-08T23:58:15.336Z,10.35
